Time;durP1;ratioP1;P1;durP2;ratioP2;P2;SDS_P1;SDS_P2;PMS_P1;PMS_P2;Temp;Humidity;BMP_temperature;BMP_pressure;BME280_temperature;BME280_humidity;BME280_pressure;Samples;Min_cycle;Max_cycle;Signal;HPM_P1;HPM_P2
2022/09/02 00:00:59;;;;;;;7.73;7.13;;;14.40;99.90;;;;;;5004201;28;20477;-66
2022/09/02 00:03:26;;;;;;;7.60;7.07;;;14.40;99.90;;;;;;5005413;28;20489;-67
2022/09/02 00:05:52;;;;;;;7.50;6.97;;;14.40;99.90;;;;;;4998717;28;20785;-66
2022/09/02 00:08:17;;;;;;;8.43;7.83;;;14.40;99.90;;;;;;5004999;28;20445;-66
2022/09/02 00:10:44;;;;;;;7.03;6.37;;;14.40;99.90;;;;;;4997564;28;20208;-66
2022/09/02 00:13:13;;;;;;;7.23;6.73;;;14.30;99.90;;;;;;4999059;28;20219;-66
2022/09/02 00:15:39;;;;;;;8.23;7.53;;;14.30;99.90;;;;;;4979020;28;20465;-66
2022/09/02 00:18:05;;;;;;;8.23;7.63;;;14.20;99.90;;;;;;5001884;28;20927;-66
2022/09/02 00:20:31;;;;;;;8.03;7.43;;;14.20;99.90;;;;;;4993094;28;20226;-66
2022/09/02 00:22:57;;;;;;;8.77;8.07;;;14.20;99.90;;;;;;4997014;28;20447;-66
2022/09/02 00:25:23;;;;;;;7.33;6.83;;;14.10;99.90;;;;;;4991048;28;20574;-66
2022/09/02 00:27:49;;;;;;;8.17;7.57;;;14.00;99.90;;;;;;4992362;28;20274;-66
2022/09/02 00:30:15;;;;;;;8.03;7.40;;;14.00;99.90;;;;;;5004836;28;20190;-66
2022/09/02 00:32:41;;;;;;;8.37;7.77;;;13.90;99.90;;;;;;4991791;28;20817;-66
2022/09/02 00:35:07;;;;;;;9.90;8.33;;;13.80;99.90;;;;;;5005176;28;20508;-66
2022/09/02 00:37:32;;;;;;;9.53;8.60;;;13.80;99.90;;;;;;5002188;28;20438;-66
2022/09/02 00:39:58;;;;;;;9.30;8.60;;;13.70;99.90;;;;;;4999763;28;20844;-66
2022/09/02 00:42:25;;;;;;;8.83;8.07;;;13.70;99.90;;;;;;5002250;28;20210;-66
2022/09/02 00:44:51;;;;;;;8.50;7.90;;;13.70;99.90;;;;;;4998464;28;20182;-66
2022/09/02 00:47:16;;;;;;;7.67;7.07;;;13.70;99.90;;;;;;5006026;28;20513;-66
2022/09/02 00:49:46;;;;;;;7.40;6.90;;;13.60;99.90;;;;;;4995804;28;20477;-66
2022/09/02 00:52:18;;;;;;;7.93;7.33;;;13.60;99.90;;;;;;4999720;28;20241;-66
2022/09/02 00:54:50;;;;;;;7.57;7.07;;;13.60;99.90;;;;;;5004476;28;20445;-66
2022/09/02 00:57:20;;;;;;;8.10;7.50;;;13.50;99.90;;;;;;5000231;28;20453;-66
2022/09/02 01:00:01;;;;;;;7.70;7.10;;;13.50;99.90;;;;;;5009434;28;20473;-66
2022/09/02 01:02:30;;;;;;;6.60;6.10;;;13.60;99.90;;;;;;5008475;28;20449;-66
2022/09/02 01:04:57;;;;;;;7.20;6.60;;;13.60;99.90;;;;;;4998460;28;20438;-66
2022/09/02 01:07:24;;;;;;;5.93;5.53;;;13.70;99.90;;;;;;5007238;28;20464;-66
2022/09/02 01:09:52;;;;;;;8.00;6.50;;;13.60;99.90;;;;;;4998269;28;20532;-66
2022/09/02 01:12:18;;;;;;;6.87;6.27;;;13.60;99.90;;;;;;4993093;28;20459;-66
2022/09/02 01:14:44;;;;;;;6.17;5.67;;;13.60;99.90;;;;;;4998373;28;20443;-66
2022/09/02 01:17:09;;;;;;;6.70;6.20;;;13.50;99.90;;;;;;5001691;28;20458;-66
2022/09/02 01:19:39;;;;;;;6.93;6.23;;;13.50;99.90;;;;;;4998731;28;20581;-66
2022/09/02 01:22:15;;;;;;;6.13;5.50;;;13.50;99.90;;;;;;4997825;28;20207;-66
2022/09/02 01:24:40;;;;;;;6.10;5.67;;;13.50;99.90;;;;;;4992334;28;20441;-66
2022/09/02 01:27:06;;;;;;;7.00;5.60;;;13.50;99.90;;;;;;5006868;28;20437;-66
2022/09/02 01:29:31;;;;;;;6.20;5.60;;;13.50;99.90;;;;;;4991008;28;20241;-66
2022/09/02 01:31:57;;;;;;;8.60;6.50;;;13.50;99.90;;;;;;5004324;28;20290;-66
2022/09/02 01:34:23;;;;;;;6.07;5.53;;;13.50;99.90;;;;;;4994291;28;20250;-66
2022/09/02 01:36:48;;;;;;;5.80;5.37;;;13.50;99.90;;;;;;5009844;28;20679;-66
2022/09/02 01:39:15;;;;;;;6.27;5.77;;;13.40;99.90;;;;;;4994611;28;20241;-66
2022/09/02 01:41:41;;;;;;;6.47;5.97;;;13.40;99.90;;;;;;5008519;28;20333;-66
2022/09/02 01:44:07;;;;;;;5.83;5.23;;;13.40;99.90;;;;;;5001619;28;20529;-66
2022/09/02 01:46:35;;;;;;;6.10;5.60;;;13.40;99.90;;;;;;5004019;28;20349;-66
2022/09/02 01:49:00;;;;;;;7.27;6.57;;;13.40;99.90;;;;;;5001514;28;20453;-66
2022/09/02 01:51:26;;;;;;;6.27;5.87;;;13.30;99.90;;;;;;5005940;28;20552;-66
2022/09/02 01:53:51;;;;;;;7.10;6.50;;;13.20;99.90;;;;;;4998862;28;20644;-66
2022/09/02 01:56:17;;;;;;;5.53;5.07;;;13.10;99.90;;;;;;5001518;28;20189;-66
2022/09/02 01:58:42;;;;;;;6.13;5.63;;;13.10;99.90;;;;;;5000661;28;20215;-66
2022/09/02 02:01:08;;;;;;;6.50;5.90;;;13.00;99.90;;;;;;4997872;28;20246;-66
2022/09/02 02:03:35;;;;;;;5.80;5.30;;;13.00;99.90;;;;;;4993646;28;20536;-66
2022/09/02 02:06:06;;;;;;;6.83;6.40;;;13.00;99.90;;;;;;5001925;28;20439;-66
2022/09/02 02:08:32;;;;;;;6.57;6.07;;;12.90;99.90;;;;;;4999815;28;20449;-66
2022/09/02 02:10:59;;;;;;;6.10;5.60;;;13.00;99.90;;;;;;5006219;28;20472;-66
2022/09/02 02:13:25;;;;;;;6.80;6.10;;;13.10;99.90;;;;;;5007713;28;20183;-66
2022/09/02 02:15:50;;;;;;;6.73;6.13;;;13.10;99.90;;;;;;4997082;28;20556;-66
2022/09/02 02:18:16;;;;;;;7.13;6.60;;;13.00;99.90;;;;;;5006184;28;20190;-66
2022/09/02 02:20:42;;;;;;;6.93;6.27;;;13.00;99.90;;;;;;5001605;28;20206;-66
2022/09/02 02:23:07;;;;;;;5.57;5.17;;;12.90;99.90;;;;;;5002156;28;20229;-66
2022/09/02 02:25:33;;;;;;;5.60;5.20;;;12.90;99.90;;;;;;5002817;28;20196;-66
2022/09/02 02:27:58;;;;;;;5.70;5.27;;;12.90;99.90;;;;;;5005998;28;20184;-66
2022/09/02 02:30:24;;;;;;;6.27;5.67;;;12.90;99.90;;;;;;4998171;28;20220;-66
2022/09/02 02:32:49;;;;;;;5.90;5.40;;;13.00;99.90;;;;;;4993803;28;20184;-66
2022/09/02 02:35:17;;;;;;;5.37;4.97;;;13.00;99.90;;;;;;4999494;28;20192;-66
2022/09/02 02:37:44;;;;;;;5.07;4.77;;;12.90;99.90;;;;;;5004732;28;20176;-66
2022/09/02 02:40:11;;;;;;;7.50;5.80;;;12.90;99.90;;;;;;5003923;28;20493;-66
2022/09/02 02:42:36;;;;;;;6.57;5.07;;;12.90;99.90;;;;;;4997310;28;20444;-66
2022/09/02 02:45:06;;;;;;;5.93;5.43;;;12.80;99.90;;;;;;4997803;28;20470;-66
2022/09/02 02:47:31;;;;;;;5.77;5.37;;;12.80;99.90;;;;;;5003110;28;20178;-66
2022/09/02 02:49:57;;;;;;;5.47;4.97;;;12.80;99.90;;;;;;5005750;28;20435;-66
2022/09/02 02:52:22;;;;;;;5.80;5.40;;;12.80;99.90;;;;;;5008833;28;20585;-66
2022/09/02 02:54:48;;;;;;;5.80;5.40;;;12.80;99.90;;;;;;5001362;28;20186;-66
2022/09/02 02:57:14;;;;;;;6.03;5.53;;;12.80;99.90;;;;;;4997110;28;20649;-66
2022/09/02 02:59:39;;;;;;;5.60;5.10;;;12.80;99.90;;;;;;5003062;28;20283;-66
2022/09/02 03:02:05;;;;;;;5.63;5.23;;;12.80;99.90;;;;;;4999927;28;20214;-66
2022/09/02 03:04:31;;;;;;;5.40;5.00;;;12.80;99.90;;;;;;5003452;28;20186;-66
2022/09/02 03:06:57;;;;;;;5.70;5.30;;;12.80;99.90;;;;;;5002145;28;20480;-66
2022/09/02 03:09:22;;;;;;;5.70;5.30;;;12.70;99.90;;;;;;5002478;28;20463;-66
2022/09/02 03:11:48;;;;;;;5.57;5.17;;;12.70;99.90;;;;;;4997618;28;20302;-66
2022/09/02 03:14:14;;;;;;;6.27;5.07;;;12.70;99.90;;;;;;4990421;28;20226;-66
2022/09/02 03:16:40;;;;;;;6.00;5.40;;;12.60;99.90;;;;;;4999759;28;20279;-66
2022/09/02 03:19:06;;;;;;;5.50;5.00;;;12.50;99.90;;;;;;4989554;28;20259;-66
2022/09/02 03:21:32;;;;;;;6.00;5.50;;;12.40;99.90;;;;;;4993852;28;20831;-66
2022/09/02 03:23:57;;;;;;;6.83;5.73;;;12.40;99.90;;;;;;4993211;28;20207;-66
2022/09/02 03:26:24;;;;;;;5.77;5.23;;;12.40;99.90;;;;;;4994404;28;20237;-66
2022/09/02 03:28:54;;;;;;;5.60;5.23;;;12.40;99.90;;;;;;4991695;28;20186;-66
2022/09/02 03:31:22;;;;;;;5.93;5.47;;;12.40;99.90;;;;;;4994650;28;20488;-66
2022/09/02 03:33:48;;;;;;;6.30;5.87;;;12.40;99.90;;;;;;4992503;28;20813;-66
2022/09/02 03:36:31;;;;;;;5.80;5.33;;;12.40;99.90;;;;;;4993408;28;20442;-66
2022/09/02 03:38:59;;;;;;;5.40;5.00;;;12.40;99.90;;;;;;4993922;28;20211;-66
2022/09/02 03:41:25;;;;;;;6.70;6.07;;;12.40;99.90;;;;;;4989130;28;20940;-66
2022/09/02 03:43:50;;;;;;;7.60;6.90;;;12.40;99.90;;;;;;4995189;28;20445;-66
2022/09/02 03:46:17;;;;;;;6.50;6.00;;;12.40;99.90;;;;;;4994978;28;20180;-66
2022/09/02 03:48:43;;;;;;;6.33;5.73;;;12.40;99.90;;;;;;4993613;28;20237;-66
2022/09/02 03:51:09;;;;;;;6.07;5.60;;;12.40;99.90;;;;;;4991941;28;20577;-66
2022/09/02 03:53:34;;;;;;;9.13;6.73;;;12.30;99.90;;;;;;5009527;28;20533;-66
2022/09/02 03:56:05;;;;;;;6.37;5.87;;;12.30;99.90;;;;;;4999406;28;20190;-66
2022/09/02 03:58:32;;;;;;;6.57;5.93;;;12.30;99.90;;;;;;5002006;28;20677;-66
2022/09/02 04:00:57;;;;;;;7.13;6.53;;;12.30;99.90;;;;;;4995241;28;20852;-66
2022/09/02 04:03:23;;;;;;;6.90;6.40;;;12.20;99.90;;;;;;5004460;28;20446;-66
2022/09/02 04:05:51;;;;;;;7.10;6.50;;;12.20;99.90;;;;;;5000572;28;20167;-66
2022/09/02 04:08:17;;;;;;;7.10;6.60;;;12.20;99.90;;;;;;4996613;28;20657;-66
2022/09/02 04:10:43;;;;;;;7.77;6.13;;;12.20;99.90;;;;;;5003310;28;20468;-66
2022/09/02 04:13:09;;;;;;;6.70;6.10;;;12.20;99.90;;;;;;5001914;28;20846;-66
2022/09/02 04:15:38;;;;;;;7.00;6.37;;;12.20;99.90;;;;;;4999897;28;20210;-66
2022/09/02 04:18:04;;;;;;;6.07;5.57;;;12.10;99.90;;;;;;5003511;28;20237;-66
2022/09/02 04:20:29;;;;;;;8.27;6.60;;;12.10;99.90;;;;;;4999268;28;20481;-66
2022/09/02 04:22:55;;;;;;;6.00;5.50;;;12.00;99.90;;;;;;5010041;28;20179;-66
2022/09/02 04:25:22;;;;;;;6.90;5.60;;;12.00;99.90;;;;;;5005016;28;20179;-66
2022/09/02 04:27:48;;;;;;;6.07;5.67;;;12.00;99.90;;;;;;5003555;28;20441;-66
2022/09/02 04:30:15;;;;;;;7.70;7.10;;;12.00;99.90;;;;;;4999421;28;20449;-65
2022/09/02 04:32:41;;;;;;;7.50;6.80;;;12.00;99.90;;;;;;4993966;28;20202;-66
2022/09/02 04:35:07;;;;;;;8.57;7.77;;;12.00;99.90;;;;;;5002649;28;20886;-66
2022/09/02 04:37:33;;;;;;;7.20;6.60;;;11.90;99.90;;;;;;4993974;28;20187;-67
2022/09/02 04:39:59;;;;;;;7.30;6.70;;;11.90;99.90;;;;;;4998523;28;20462;-66
2022/09/02 04:42:24;;;;;;;9.63;8.03;;;11.90;99.90;;;;;;4991701;28;20215;-65
2022/09/02 04:44:52;;;;;;;6.80;6.20;;;11.80;99.90;;;;;;4997276;28;20183;-66
2022/09/02 04:47:18;;;;;;;6.53;6.13;;;11.80;99.90;;;;;;5001949;28;20595;-66
2022/09/02 04:49:43;;;;;;;7.93;6.90;;;11.90;99.90;;;;;;4986252;28;20439;-66
2022/09/02 04:52:09;;;;;;;6.73;6.20;;;11.90;99.90;;;;;;4999048;28;20211;-66
2022/09/02 04:54:35;;;;;;;6.17;5.67;;;11.90;99.90;;;;;;5002271;28;20175;-66
2022/09/02 04:57:01;;;;;;;7.43;5.80;;;12.00;99.90;;;;;;5002052;28;20179;-66
2022/09/02 04:59:26;;;;;;;6.13;5.53;;;12.00;99.90;;;;;;4982659;28;21091;-66
2022/09/02 05:01:52;;;;;;;6.40;5.80;;;12.00;99.90;;;;;;5000990;28;20291;-66
2022/09/02 05:04:18;;;;;;;7.13;6.07;;;12.00;99.90;;;;;;5000304;28;20183;-66
2022/09/02 05:06:45;;;;;;;6.60;5.90;;;12.00;99.90;;;;;;4996849;28;20437;-66
2022/09/02 05:09:10;;;;;;;7.10;5.90;;;12.10;99.90;;;;;;4998764;28;20190;-66
2022/09/02 05:11:37;;;;;;;6.20;5.80;;;12.10;99.90;;;;;;5002022;28;20461;-66
2022/09/02 05:14:05;;;;;;;7.63;7.03;;;12.10;99.90;;;;;;4992163;28;20611;-66
2022/09/02 05:16:35;;;;;;;7.20;6.60;;;12.10;99.90;;;;;;4988897;28;20543;-66
2022/09/02 05:19:03;;;;;;;7.40;6.60;;;12.20;99.90;;;;;;4997636;28;20467;-66
2022/09/02 05:21:30;;;;;;;6.10;5.67;;;12.30;99.90;;;;;;4990697;28;20455;-65
2022/09/02 05:23:56;;;;;;;6.10;5.70;;;12.30;99.90;;;;;;4987049;28;20430;-66
2022/09/02 05:26:23;;;;;;;6.23;5.73;;;12.40;99.90;;;;;;4991277;28;20470;-66
2022/09/02 05:28:49;;;;;;;5.70;5.20;;;12.50;99.90;;;;;;4990135;28;20755;-66
2022/09/02 05:31:17;;;;;;;6.97;6.27;;;12.70;99.90;;;;;;4990552;28;20880;-66
2022/09/02 05:33:43;;;;;;;7.03;6.50;;;12.80;99.90;;;;;;4986207;28;20509;-65
2022/09/02 05:36:20;;;;;;;6.93;6.40;;;13.00;99.90;;;;;;4990667;28;20438;-65
2022/09/02 05:38:47;;;;;;;7.43;6.73;;;13.40;99.90;;;;;;4983694;28;20475;-66
2022/09/02 05:41:22;;;;;;;6.83;6.23;;;13.40;99.90;;;;;;4991089;28;20462;-66
2022/09/02 05:43:48;;;;;;;11.17;7.23;;;13.40;99.90;;;;;;4991161;28;20558;-66
2022/09/02 05:46:16;;;;;;;7.47;6.87;;;13.70;99.90;;;;;;4990296;28;20913;-66
2022/09/02 05:51:28;;;;;;;6.53;6.03;;;13.80;99.90;;;;;;4989700;28;20561;-66
2022/09/02 05:53:56;;;;;;;6.90;5.93;;;13.80;99.90;;;;;;4987683;28;20967;-66
2022/09/02 05:56:23;;;;;;;6.83;6.23;;;13.90;99.90;;;;;;4997507;28;20435;-66
2022/09/02 05:58:49;;;;;;;7.13;6.53;;;14.20;99.90;;;;;;4996901;28;20971;-66
2022/09/02 06:01:18;;;;;;;6.43;5.33;;;14.40;99.90;;;;;;4990864;28;20546;-66
2022/09/02 06:03:43;;;;;;;7.27;6.57;;;14.70;99.90;;;;;;4989304;28;20434;-66
2022/09/02 06:06:09;;;;;;;7.47;5.93;;;14.90;99.90;;;;;;4989546;28;20983;-66
2022/09/02 06:08:35;;;;;;;6.00;5.60;;;15.20;99.90;;;;;;4982076;28;20205;-66
2022/09/02 06:11:02;;;;;;;6.10;5.60;;;15.30;99.90;;;;;;4983280;28;20500;-66
2022/09/02 06:13:36;;;;;;;5.90;5.40;;;15.40;99.90;;;;;;4989410;28;20837;-66
2022/09/02 06:16:02;;;;;;;5.20;4.80;;;15.70;99.90;;;;;;4990888;28;20433;-68
2022/09/02 06:18:28;;;;;;;6.43;5.93;;;15.90;99.90;;;;;;4993731;28;20438;-68
2022/09/02 06:20:54;;;;;;;4.93;4.60;;;16.00;99.90;;;;;;5003356;28;20826;-68
2022/09/02 06:23:19;;;;;;;6.33;4.90;;;16.20;99.90;;;;;;5003226;28;20261;-70
2022/09/02 06:25:47;;;;;;;6.67;5.27;;;16.30;99.90;;;;;;4986552;28;20603;-69
2022/09/02 06:28:14;;;;;;;7.03;5.17;;;16.50;99.90;;;;;;4989856;28;20625;-69
2022/09/02 06:30:42;;;;;;;5.80;5.20;;;16.70;99.90;;;;;;4991428;28;20466;-71
2022/09/02 06:33:08;;;;;;;4.93;4.50;;;16.70;99.90;;;;;;4988158;28;20438;-72
2022/09/02 06:35:39;;;;;;;5.30;4.87;;;16.70;99.90;;;;;;4991394;28;20438;-70
2022/09/02 06:38:05;;;;;;;4.87;4.50;;;16.80;99.90;;;;;;4988945;28;20450;-69
2022/09/02 06:40:31;;;;;;;5.13;4.73;;;17.00;99.90;;;;;;4992180;28;20478;-69
2022/09/02 06:42:56;;;;;;;6.40;5.43;;;17.20;99.90;;;;;;5007269;28;21011;-68
2022/09/02 06:45:25;;;;;;;5.80;4.90;;;17.40;99.90;;;;;;4993228;28;20669;-69
2022/09/02 06:47:52;;;;;;;4.90;4.50;;;17.60;99.90;;;;;;5002053;28;20714;-72
2022/09/02 06:50:18;;;;;;;4.80;4.40;;;17.70;99.90;;;;;;4988963;28;20442;-68
2022/09/02 06:52:44;;;;;;;8.40;7.60;;;17.90;99.90;;;;;;4990155;28;20524;-69
2022/09/02 06:55:09;;;;;;;4.77;4.40;;;18.00;99.90;;;;;;4991177;28;20442;-69
2022/09/02 06:57:36;;;;;;;5.87;4.30;;;18.10;99.90;;;;;;4995923;28;20187;-69
2022/09/02 07:00:09;;;;;;;4.60;4.20;;;18.30;99.90;;;;;;4986675;28;20199;-68
2022/09/02 07:02:36;;;;;;;5.37;4.00;;;18.50;99.90;;;;;;4987388;28;20433;-69
2022/09/02 07:05:13;;;;;;;13.63;6.60;;;18.70;99.90;;;;;;5002815;28;20436;-69
2022/09/02 07:07:40;;;;;;;4.30;3.90;;;18.70;99.90;;;;;;5000977;28;20536;-69
2022/09/02 07:10:09;;;;;;;4.20;3.90;;;18.90;99.90;;;;;;4988166;28;20948;-68
2022/09/02 07:12:36;;;;;;;4.20;3.90;;;18.90;99.90;;;;;;5002696;28;20499;-69
2022/09/02 07:15:03;;;;;;;4.90;4.50;;;19.10;99.90;;;;;;5014640;28;20428;-69
2022/09/02 07:17:29;;;;;;;4.93;4.53;;;19.20;99.90;;;;;;5001504;28;20447;-69
2022/09/02 07:19:58;;;;;;;4.47;4.07;;;19.10;99.90;;;;;;4992171;28;20477;-68
2022/09/02 07:22:24;;;;;;;4.33;4.03;;;18.90;99.90;;;;;;4993610;28;20200;-69
2022/09/02 07:24:49;;;;;;;4.50;4.10;;;19.00;99.90;;;;;;5000744;28;20957;-69
2022/09/02 07:27:15;;;;;;;4.27;4.00;;;19.20;99.90;;;;;;4997400;28;20462;-69
2022/09/02 07:29:42;;;;;;;4.13;3.80;;;19.40;99.90;;;;;;4994649;28;20191;-68
2022/09/02 07:32:08;;;;;;;4.80;3.97;;;19.60;99.90;;;;;;4992927;28;20211;-69
2022/09/02 07:34:34;;;;;;;5.13;4.60;;;19.70;99.90;;;;;;4999355;28;20430;-68
2022/09/02 07:37:00;;;;;;;5.40;4.20;;;19.60;99.90;;;;;;4989105;28;20451;-69
2022/09/02 07:39:26;;;;;;;4.97;3.90;;;19.70;99.90;;;;;;5005131;28;20808;-68
2022/09/02 07:41:52;;;;;;;4.60;4.20;;;20.00;99.90;;;;;;5002071;28;20462;-69
2022/09/02 07:44:19;;;;;;;4.93;4.63;;;20.10;99.90;;;;;;5007987;28;20182;-68
2022/09/02 07:46:44;;;;;;;5.00;3.90;;;20.20;99.90;;;;;;4996430;28;20761;-68
2022/09/02 07:49:11;;;;;;;4.17;3.87;;;20.30;99.90;;;;;;5001738;28;20441;-69
2022/09/02 07:51:39;;;;;;;4.37;3.77;;;20.10;99.90;;;;;;4990387;28;20306;-68
2022/09/02 07:54:07;;;;;;;3.87;3.63;;;19.90;99.90;;;;;;4996725;28;20445;-68
2022/09/02 07:56:32;;;;;;;4.40;4.00;;;19.90;99.90;;;;;;4995049;28;20445;-68
2022/09/02 07:58:58;;;;;;;3.63;3.33;;;20.10;99.90;;;;;;4997686;28;20467;-68
2022/09/02 08:01:24;;;;;;;5.57;4.00;;;20.30;99.90;;;;;;5000840;28;20200;-68
2022/09/02 08:03:49;;;;;;;5.80;4.00;;;20.40;99.90;;;;;;4999249;28;20181;-68
2022/09/02 08:06:15;;;;;;;4.03;3.77;;;20.20;99.90;;;;;;5002638;28;20649;-68
2022/09/02 08:08:42;;;;;;;4.77;3.03;;;20.40;99.90;;;;;;4992258;28;20257;-68
2022/09/02 08:11:08;;;;;;;8.47;3.47;;;20.60;99.90;;;;;;5002544;28;20211;-68
2022/09/02 08:13:35;;;;;;;4.13;3.43;;;20.80;99.90;;;;;;5001060;28;20441;-68
2022/09/02 08:16:02;;;;;;;6.17;3.30;;;21.10;99.90;;;;;;4990616;28;20182;-68
2022/09/02 08:18:28;;;;;;;3.60;3.40;;;21.30;99.90;;;;;;4993175;28;20424;-69
2022/09/02 08:20:54;;;;;;;4.70;3.60;;;21.50;99.90;;;;;;4999903;28;20466;-69
2022/09/02 08:23:20;;;;;;;3.40;3.10;;;21.50;99.90;;;;;;4994287;28;20445;-68
2022/09/02 08:25:46;;;;;;;3.80;3.57;;;21.30;99.90;;;;;;5004622;28;21091;-69
2022/09/02 08:28:12;;;;;;;3.93;3.53;;;21.30;99.90;;;;;;4992219;28;20179;-68
2022/09/02 08:30:39;;;;;;;3.37;3.17;;;20.90;99.90;;;;;;5001266;28;20231;-69
2022/09/02 08:33:04;;;;;;;3.60;3.30;;;20.70;99.90;;;;;;4992241;28;20442;-69
2022/09/02 08:35:30;;;;;;;3.20;3.00;;;20.80;99.90;;;;;;4981774;28;20456;-68
2022/09/02 08:38:00;;;;;;;2.87;2.67;;;21.20;99.90;;;;;;4999360;28;20572;-68
2022/09/02 08:40:33;;;;;;;3.37;3.17;;;21.60;99.90;;;;;;4998757;28;20250;-69
2022/09/02 08:43:01;;;;;;;3.10;2.90;;;22.10;99.90;;;;;;4990993;28;20451;-68
2022/09/02 08:45:29;;;;;;;5.53;3.20;;;22.40;99.90;;;;;;4985058;28;21000;-68
2022/09/02 08:48:11;;;;;;;3.17;2.87;;;22.60;99.90;;;;;;4995866;28;20435;-68
2022/09/02 08:50:39;;;;;;;3.43;2.40;;;22.90;99.90;;;;;;4988003;28;20465;-68
2022/09/02 08:53:33;;;;;;;3.47;3.10;;;22.90;99.90;;;;;;4996074;28;20528;-68
2022/09/02 08:56:02;;;;;;;4.23;3.00;;;23.00;99.90;;;;;;4988498;28;20575;-69
2022/09/02 08:58:32;;;;;;;2.93;2.63;;;23.20;99.90;;;;;;4998307;28;20447;-68
2022/09/02 09:01:31;;;;;;;2.47;2.37;;;23.20;99.90;;;;;;4992123;28;21064;-69
2022/09/02 09:04:30;;;;;;;4.13;2.93;;;23.40;99.80;;;;;;4987814;28;20435;-68
2022/09/02 09:07:52;;;;;;;5.23;2.93;;;23.30;99.90;;;;;;4994583;28;20440;-69
2022/09/02 09:10:33;;;;;;;3.97;3.13;;;23.30;99.80;;;;;;4937674;28;20476;-69
2022/09/02 09:13:40;;;;;;;3.67;2.77;;;24.00;99.00;;;;;;4932779;29;20557;-68
2022/09/02 09:16:30;;;;;;;3.07;2.47;;;24.80;97.30;;;;;;4980831;28;20450;-68
2022/09/02 09:19:07;;;;;;;2.43;2.23;;;25.80;94.70;;;;;;4989755;28;20505;-68
2022/09/02 09:21:33;;;;;;;2.87;2.67;;;26.40;93.30;;;;;;4996770;28;20457;-67
2022/09/02 09:24:05;;;;;;;2.60;2.40;;;26.90;91.80;;;;;;4987431;28;20838;-67
2022/09/02 09:26:35;;;;;;;2.33;2.13;;;27.20;91.40;;;;;;4995071;28;20249;-67
2022/09/02 09:29:03;;;;;;;2.90;2.30;;;27.80;88.40;;;;;;4998703;28;20447;-67
2022/09/02 09:31:31;;;;;;;3.50;2.90;;;27.50;86.00;;;;;;4994771;28;20467;-66
2022/09/02 09:34:01;;;;;;;2.70;2.50;;;27.70;84.90;;;;;;4989010;28;20529;-67
2022/09/02 09:36:43;;;;;;;2.47;2.27;;;27.90;83.80;;;;;;4993960;28;20736;-69
2022/09/02 09:39:29;;;;;;;2.50;2.37;;;28.60;81.50;;;;;;4990679;28;20470;-67
2022/09/02 09:42:02;;;;;;;5.70;2.50;;;29.20;78.20;;;;;;4986996;28;21010;-67
2022/09/02 09:44:36;;;;;;;2.37;2.17;;;29.40;77.40;;;;;;4993575;28;20443;-67
2022/09/02 09:47:04;;;;;;;3.43;3.13;;;29.40;76.30;;;;;;4998886;28;20461;-67
2022/09/02 09:49:32;;;;;;;2.67;2.17;;;29.80;74.70;;;;;;4998195;28;20445;-67
2022/09/02 09:51:58;;;;;;;2.80;2.20;;;30.50;72.70;;;;;;4996514;28;20984;-67
2022/09/02 09:54:25;;;;;;;3.10;2.67;;;30.70;69.80;;;;;;5001283;28;20525;-67
2022/09/02 09:56:51;;;;;;;2.47;2.33;;;30.90;70.10;;;;;;4985413;28;20541;-67
2022/09/02 09:59:41;;;;;;;2.97;2.47;;;30.60;66.20;;;;;;5000606;28;20553;-67
2022/09/02 10:02:18;;;;;;;2.30;2.13;;;29.30;67.20;;;;;;4997746;28;20685;-71
2022/09/02 10:04:44;;;;;;;2.20;2.10;;;29.50;68.30;;;;;;5001519;28;20443;-70
2022/09/02 10:07:12;;;;;;;2.50;2.30;;;28.60;69.90;;;;;;4990228;28;20439;-72
2022/09/02 10:09:37;;;;;;;3.07;2.70;;;29.50;69.90;;;;;;4996790;22;20391;-70
2022/09/02 10:12:06;;;;;;;2.20;2.10;;;31.00;67.00;;;;;;4971296;28;20459;-70
2022/09/02 10:14:46;;;;;;;8.77;8.07;;;31.50;64.40;;;;;;4971992;28;20683;-72
2022/09/02 10:17:20;;;;;;;31.97;28.83;;;31.80;63.30;;;;;;4969360;28;20427;-72
2022/09/02 10:20:10;;;;;;;35.00;31.90;;;32.90;61.50;;;;;;4977918;28;20474;-72
2022/09/02 10:22:38;;;;;;;14.70;13.40;;;33.10;59.70;;;;;;4985220;28;20464;-72
2022/09/02 10:25:25;;;;;;;12.80;11.60;;;32.80;59.00;;;;;;4987900;28;20818;-72
2022/09/02 10:28:12;;;;;;;3.40;3.20;;;32.90;58.10;;;;;;4987238;28;21002;-72
2022/09/02 10:30:44;;;;;;;3.73;3.33;;;33.40;57.60;;;;;;4999220;28;20454;-69
2022/09/02 10:33:27;;;;;;;4.30;4.00;;;33.10;56.20;;;;;;4991459;28;20450;-70
2022/09/02 10:36:10;;;;;;;2.90;2.70;;;33.80;55.40;;;;;;4991614;28;20442;-67
2022/09/02 10:38:43;;;;;;;3.87;3.57;;;34.20;54.10;;;;;;4991759;28;20430;-66
2022/09/02 10:41:34;;;;;;;3.40;3.10;;;34.50;52.40;;;;;;4991043;28;20442;-67
2022/09/02 10:44:21;;;;;;;3.43;2.90;;;34.00;52.90;;;;;;4989822;28;20442;-68
2022/09/02 10:47:00;;;;;;;2.73;2.53;;;34.40;52.80;;;;;;4982220;28;20470;-67
2022/09/02 10:49:34;;;;;;;3.40;2.50;;;35.40;52.00;;;;;;4984350;28;20461;-68
2022/09/02 10:52:15;;;;;;;3.20;2.90;;;35.90;52.20;;;;;;4985685;28;20448;-69
2022/09/02 10:55:03;;;;;;;3.17;2.20;;;35.20;50.90;;;;;;4989691;28;20513;-69
2022/09/02 10:57:34;;;;;;;2.73;2.53;;;34.80;51.00;;;;;;4989316;28;20517;-68
2022/09/02 11:00:03;;;;;;;1.77;1.67;;;35.20;50.50;;;;;;4983222;28;21210;-69
2022/09/02 11:03:05;;;;;;;3.40;2.33;;;35.30;50.10;;;;;;4990305;28;20445;-73
2022/09/02 11:05:46;;;;;;;4.40;4.00;;;36.50;49.30;;;;;;4992648;28;20426;-72
2022/09/02 11:08:29;;;;;;;2.37;2.17;;;37.50;48.80;;;;;;4992042;28;20781;-73
2022/09/02 11:11:10;;;;;;;2.63;2.43;;;37.20;47.30;;;;;;4990041;28;20481;-73
2022/09/02 11:14:17;;;;;;;2.00;1.90;;;36.90;48.10;;;;;;4978088;28;20435;-73
2022/09/02 11:17:31;;;;;;;2.50;2.20;;;36.70;47.20;;;;;;4988757;28;20932;-72
2022/09/02 11:20:27;;;;;;;2.13;1.93;;;37.00;46.40;;;;;;4990298;28;20474;-73
2022/09/02 11:23:17;;;;;;;2.20;1.90;;;37.20;45.90;;;;;;4988398;28;21038;-73
2022/09/02 11:25:50;;;;;;;2.03;1.90;;;37.20;45.80;;;;;;4988259;28;20442;-73
2022/09/02 11:28:16;;;;;;;1.90;1.80;;;37.10;45.40;;;;;;4989435;28;20486;-72
2022/09/02 11:30:56;;;;;;;2.47;2.00;;;37.30;45.30;;;;;;4990162;28;20888;-73
2022/09/02 11:33:30;;;;;;;1.90;1.80;;;37.60;44.80;;;;;;4989743;28;20183;-73
2022/09/02 11:35:58;;;;;;;2.00;1.90;;;37.40;44.70;;;;;;4991480;28;20437;-73
2022/09/02 11:38:39;;;;;;;2.20;2.00;;;37.20;44.30;;;;;;4991853;28;20455;-73
2022/09/02 11:41:21;;;;;;;2.80;2.60;;;37.70;44.00;;;;;;4991235;28;20995;-73
2022/09/02 11:43:54;;;;;;;2.10;2.00;;;38.00;43.70;;;;;;4989687;28;20443;-73
2022/09/02 11:46:45;;;;;;;2.03;1.93;;;38.40;43.50;;;;;;4991747;28;20462;-73
2022/09/02 11:49:28;;;;;;;1.93;1.83;;;37.90;43.50;;;;;;4989615;28;20466;-73
2022/09/02 11:52:07;;;;;;;1.87;1.77;;;36.90;43.40;;;;;;4992094;28;20501;-73
2022/09/02 11:54:38;;;;;;;2.87;2.10;;;36.60;44.40;;;;;;4989702;28;21009;-73
2022/09/02 11:57:06;;;;;;;2.67;2.23;;;37.90;43.20;;;;;;4991978;28;20512;-73
2022/09/02 11:59:49;;;;;;;2.33;2.13;;;38.30;43.40;;;;;;4992666;28;21007;-70
2022/09/02 12:02:39;;;;;;;2.37;2.00;;;38.60;42.40;;;;;;4992361;28;20798;-64
2022/09/02 12:05:28;;;;;;;3.33;3.13;;;38.60;42.10;;;;;;4991349;28;20446;-64
2022/09/02 12:07:55;;;;;;;2.53;2.20;;;39.70;41.70;;;;;;4992451;28;20434;-64
2022/09/02 12:10:42;;;;;;;2.60;2.43;;;39.80;41.10;;;;;;4991094;28;20505;-64
2022/09/02 12:13:11;;;;;;;4.70;2.00;;;40.30;40.10;;;;;;4986081;28;20473;-66
2022/09/02 12:15:39;;;;;;;2.27;1.83;;;40.50;41.00;;;;;;5005119;28;20443;-63
2022/09/02 12:18:11;;;;;;;6.23;2.40;;;40.90;40.00;;;;;;5008554;28;20434;-66
2022/09/02 12:20:37;;;;;;;2.77;2.40;;;40.50;39.50;;;;;;5009713;28;20454;-64
2022/09/02 12:23:04;;;;;;;2.30;2.17;;;40.20;40.20;;;;;;4999058;28;20442;-64
2022/09/02 12:25:32;;;;;;;2.30;2.10;;;40.70;39.90;;;;;;4999922;28;20434;-63
2022/09/02 12:28:20;;;;;;;2.13;2.03;;;40.30;39.30;;;;;;4992197;28;20473;-64
2022/09/02 12:31:01;;;;;;;2.30;2.10;;;38.90;40.10;;;;;;4992291;28;20485;-64
2022/09/02 12:33:32;;;;;;;1.93;1.80;;;39.20;40.10;;;;;;4990869;28;20474;-65
2022/09/02 12:35:58;;;;;;;1.93;1.83;;;41.00;39.40;;;;;;4991817;28;20446;-64
2022/09/02 12:38:29;;;;;;;2.20;2.10;;;41.40;39.20;;;;;;4987444;28;20457;-64
2022/09/02 12:41:04;;;;;;;2.27;2.07;;;41.70;38.70;;;;;;4988547;28;20470;-64
2022/09/02 12:43:43;;;;;;;2.40;2.20;;;42.00;38.60;;;;;;4992493;28;20430;-63
2022/09/02 12:46:35;;;;;;;2.00;1.90;;;41.40;39.20;;;;;;4984893;28;20426;-65
2022/09/02 12:49:20;;;;;;;3.73;1.93;;;42.40;38.90;;;;;;4986651;28;20770;-65
2022/09/02 12:52:32;;;;;;;4.50;2.10;;;42.00;38.20;;;;;;4991744;28;20431;-65
2022/09/02 12:55:17;;;;;;;2.27;2.17;;;41.10;38.20;;;;;;4981823;28;20453;-65
2022/09/02 12:57:46;;;;;;;2.20;2.10;;;38.40;39.30;;;;;;4989470;28;20465;-65
2022/09/02 13:00:14;;;;;;;2.47;2.23;;;37.10;40.30;;;;;;4990525;28;20466;-66
2022/09/02 13:03:01;;;;;;;6.53;2.30;;;38.40;40.30;;;;;;4993284;28;20568;-64
2022/09/02 13:06:10;;;;;;;2.30;2.13;;;39.90;39.60;;;;;;4990978;28;20449;-64